Terminal Aerodrome Forecast
Issued by NWS

Home | Current Version | Previous Version | Text Only | Print | Product List | Glossary On
Versions: 1 2 3 4 5 6 7 8 9 10 11 12 13 14 15 16 17 18 19 20 21
000
FTUS44 KLZK 281700 RRA
TAFHRO
TAF
KHRO 281746Z 2818/2918 16008KT P6SM FEW018 FEW027 SCT035
     FM282000 16005KT P6SM -SHRA SCT030 BKN050
     FM290200 15004KT P6SM SCT100 SCT250=

USA.gov is the U.S. government's official web portal to all federal, state and local government web resources and services.